Time;durP1;ratioP1;P1;durP2;ratioP2;P2;SDS_P1;SDS_P2;PMS_P1;PMS_P2;Temp;Humidity;BMP_temperature;BMP_pressure;BME280_temperature;BME280_humidity;BME280_pressure;Samples;Min_cycle;Max_cycle;Signal;HPM_P1;HPM_P2
2023/04/12 00:02:02;;;;;;;21.20;19.30;;;;;;;5.43;100.00;97309.22;109805;1260;22565;-83
2023/04/12 00:04:33;;;;;;;20.60;18.60;;;;;;;5.39;100.00;97305.05;109544;1260;22554;-90
2023/04/12 00:07:02;;;;;;;20.20;18.40;;;;;;;5.42;100.00;97302.18;108697;1286;22282;-92
2023/04/12 00:09:38;;;;;;;20.00;18.10;;;;;;;5.40;100.00;97304.49;109685;1262;22385;-87
2023/04/12 00:12:06;;;;;;;19.50;17.50;;;;;;;5.38;100.00;97303.45;109255;1286;22233;-87
2023/04/12 00:14:34;;;;;;;19.20;17.00;;;;;;;5.36;100.00;97302.81;108838;1286;25250;-92
2023/04/12 00:17:02;;;;;;;19.30;17.20;;;;;;;5.36;100.00;97303.93;108507;1286;22224;-93
2023/04/12 00:19:30;;;;;;;19.40;17.40;;;;;;;5.35;100.00;97300.27;109008;1276;22683;-89
2023/04/12 00:21:58;;;;;;;19.60;17.80;;;;;;;5.32;100.00;97297.30;107881;1286;22544;-90
2023/04/12 00:24:26;;;;;;;18.10;16.50;;;;;;;5.28;100.00;97292.68;107674;1286;22554;-90
2023/04/12 00:27:00;;;;;;;18.40;16.60;;;;;;;5.30;100.00;97299.45;109631;1260;22693;31
2023/04/12 00:29:28;;;;;;;17.70;16.10;;;;;;;5.26;100.00;97299.15;109689;1262;22452;-84
2023/04/12 00:31:58;;;;;;;17.70;16.10;;;;;;;5.26;100.00;97296.59;109259;1263;24444;-88
2023/04/12 00:34:33;;;;;;;17.20;15.60;;;;;;;5.23;100.00;97294.36;109686;1264;22056;31
2023/04/12 00:37:07;;;;;;;18.00;16.20;;;;;;;5.24;100.00;97293.56;109816;1259;22309;31
2023/04/12 00:39:47;;;;;;;17.50;15.70;;;;;;;5.23;100.00;97287.86;109841;1257;26589;31
2023/04/12 00:42:22;;;;;;;16.40;15.00;;;;;;;5.20;100.00;97292.78;102159;1262;5006714;-83
2023/04/12 00:44:55;;;;;;;;;;;;;;;5.21;100.00;97290.05;95108;1261;22808;-83
2023/04/12 00:47:24;;;;;;;16.40;15.00;;;;;;;5.19;100.00;97287.88;109575;1261;22967;-89
2023/04/12 00:50:13;;;;;;;15.10;13.70;;;;;;;5.17;100.00;97289.12;110010;1257;22290;31
2023/04/12 00:52:50;;;;;;;15.00;13.50;;;;;;;5.17;100.00;97288.48;109676;1261;24375;-94
2023/04/12 00:55:25;;;;;;;14.50;13.10;;;;;;;5.19;100.00;97289.87;109896;1261;22478;31
2023/04/12 01:11:24;;;;;;;12.60;11.30;;;;;;;5.11;100.00;97281.27;109543;1279;22346;31
2023/04/12 01:17:23;;;;;;;12.00;10.90;;;;;;;5.04;100.00;97281.10;109963;1257;22711;31
2023/04/12 01:20:17;;;;;;;12.00;10.80;;;;;;;5.07;100.00;97281.57;109772;1263;22555;31
2023/04/12 01:29:48;;;;;;;11.40;10.40;;;;;;;5.04;100.00;97283.39;109335;1280;22344;31
2023/04/12 01:32:19;;;;;;;11.10;10.10;;;;;;;5.03;100.00;97288.27;109812;1292;22071;-82
2023/04/12 01:34:49;;;;;;;12.20;11.10;;;;;;;5.03;100.00;97285.38;109873;1292;22148;-82
2023/04/12 01:37:19;;;;;;;11.60;10.60;;;;;;;4.99;100.00;97283.11;109829;1292;22060;-82
2023/04/12 01:39:47;;;;;;;11.00;10.00;;;;;;;5.00;100.00;97286.41;109827;1280;21912;-82
2023/04/12 01:42:21;;;;;;;10.60;9.70;;;;;;;4.99;100.00;97292.12;109879;1292;22165;-82
2023/04/12 01:45:13;;;;;;;11.50;10.40;;;;;;;5.00;100.00;97289.94;109683;1260;22678;31
2023/04/12 01:47:52;;;;;;;11.80;10.80;;;;;;;5.02;100.00;97292.17;109739;1267;22230;31
2023/04/12 01:50:30;;;;;;;11.90;10.80;;;;;;;5.03;100.00;97297.39;109509;1266;22774;31
2023/04/12 01:56:11;;;;;;;11.70;10.50;;;;;;;4.92;100.00;97297.99;107991;1285;22219;31
2023/04/12 01:58:53;;;;;;;12.90;11.60;;;;;;;4.82;100.00;97285.09;109491;1270;22249;31
2023/04/12 02:01:29;;;;;;;12.40;10.40;;;;;;;4.89;100.00;97292.84;109659;1264;22481;31
2023/04/12 02:04:08;;;;;;;12.40;11.20;;;;;;;4.88;100.00;97292.20;98296;1267;22715;31
2023/04/12 02:06:38;;;;;;;12.30;11.20;;;;;;;4.86;100.00;97296.75;109815;1266;22502;-86
2023/04/12 02:09:11;;;;;;;13.10;11.80;;;;;;;4.86;100.00;97291.41;109753;1264;22375;31
2023/04/12 02:11:49;;;;;;;13.00;11.90;;;;;;;4.85;100.00;97287.84;101746;1264;22248;-84
2023/04/12 02:14:25;;;;;;;12.30;11.20;;;;;;;4.79;100.00;97281.85;109761;1263;22357;31
2023/04/12 02:17:01;;;;;;;12.60;11.40;;;;;;;4.81;100.00;97284.72;100334;1265;22375;-85
2023/04/12 02:19:31;;;;;;;12.00;10.80;;;;;;;4.83;100.00;97282.63;109777;1264;22355;-85
2023/04/12 02:21:59;;;;;;;13.50;12.30;;;;;;;4.81;100.00;97283.43;109852;1290;22251;-87
2023/04/12 02:24:28;;;;;;;13.60;12.20;;;;;;;4.83;100.00;97284.77;109845;1287;21950;-91
2023/04/12 02:26:57;;;;;;;11.80;10.70;;;;;;;4.81;100.00;97285.46;109741;1290;22686;-89
2023/04/12 02:29:26;;;;;;;12.50;11.30;;;;;;;4.81;100.00;97284.02;109688;1290;22213;-90
2023/04/12 02:31:54;;;;;;;12.80;11.70;;;;;;;4.84;100.00;97288.75;109716;1290;22325;-91
2023/04/12 02:34:24;;;;;;;12.60;11.40;;;;;;;4.87;100.00;97291.46;109750;1290;22209;-89
2023/04/12 02:37:06;;;;;;;11.30;10.20;;;;;;;4.88;100.00;97291.89;109781;1266;22409;-82
2023/04/12 02:39:40;;;;;;;12.10;10.90;;;;;;;4.86;100.00;97291.20;109707;1260;22402;-85
2023/04/12 02:42:15;;;;;;;13.20;12.00;;;;;;;4.84;100.00;97292.85;109588;1266;22355;-93
2023/04/12 02:45:12;;;;;;;11.80;10.60;;;;;;;4.80;100.00;97288.30;109576;1267;22822;31
2023/04/12 02:47:46;;;;;;;12.00;10.90;;;;;;;4.77;100.00;97288.33;109685;1264;23431;31
2023/04/12 02:50:35;;;;;;;11.40;10.40;;;;;;;4.80;100.00;97294.01;109603;1263;22379;31
2023/04/12 02:53:23;;;;;;;11.00;9.90;;;;;;;4.79;100.00;97291.35;108092;1272;22340;31
2023/04/12 02:56:37;;;;;;;12.00;10.70;;;;;;;4.74;100.00;97296.60;109668;1269;22956;31
2023/04/12 02:59:19;;;;;;;11.80;10.70;;;;;;;4.70;100.00;97285.85;109763;1260;22636;31
2023/04/12 03:02:37;;;;;;;11.80;10.00;;;;;;;4.72;100.00;97286.86;109476;1263;22644;-89
2023/04/12 03:05:13;;;;;;;11.10;9.90;;;;;;;4.69;100.00;97284.36;109565;1266;23774;31
2023/04/12 03:07:48;;;;;;;12.40;11.20;;;;;;;4.70;100.00;97279.02;109734;1264;23509;31
2023/04/12 03:10:26;;;;;;;11.00;9.90;;;;;;;4.66;100.00;97285.21;109741;1267;22456;31
2023/04/12 03:13:07;;;;;;;11.20;9.80;;;;;;;4.67;100.00;97282.28;109608;1267;22345;31
2023/04/12 03:15:37;;;;;;;9.70;8.80;;;;;;;4.68;100.00;97277.38;109330;1267;22413;-91
2023/04/12 03:18:06;;;;;;;9.60;8.70;;;;;;;4.70;100.00;97280.51;109672;1263;22113;-87
2023/04/12 03:20:42;;;;;;;11.10;10.10;;;;;;;4.72;100.00;97279.38;109727;1291;22194;-84
2023/04/12 03:23:14;;;;;;;11.70;10.60;;;;;;;4.71;99.94;97279.22;109657;1291;22239;-92
2023/04/12 03:25:45;;;;;;;11.90;10.00;;;;;;;4.68;99.96;97280.42;109593;1291;22294;-91
2023/04/12 03:28:32;;;;;;;9.70;8.70;;;;;;;4.68;100.00;97275.45;109664;1291;22284;-90
2023/04/12 03:31:01;;;;;;;10.50;8.80;;;;;;;4.68;99.98;97278.70;109529;1290;22206;-91
2023/04/12 03:33:48;;;;;;;10.20;9.20;;;;;;;4.71;100.00;97277.14;109650;1264;22488;31
2023/04/12 03:36:22;;;;;;;11.30;10.20;;;;;;;4.70;100.00;97272.13;109633;1290;22257;-89
2023/04/12 03:38:57;;;;;;;11.10;10.00;;;;;;;4.71;100.00;97270.58;109548;1290;22274;-89
2023/04/12 03:41:27;;;;;;;11.10;10.00;;;;;;;4.70;99.95;97269.20;109536;1290;22253;-89
2023/04/12 03:43:55;;;;;;;10.90;9.80;;;;;;;4.70;99.96;97277.56;109700;1290;22266;-90
2023/04/12 03:46:24;;;;;;;9.40;8.50;;;;;;;4.68;100.00;97277.52;109669;1290;22255;-91
2023/04/12 03:48:56;;;;;;;10.10;9.10;;;;;;;4.71;100.00;97277.46;109660;1290;22211;-89
2023/04/12 03:51:25;;;;;;;11.10;10.00;;;;;;;4.70;99.86;97272.88;109669;1290;22798;-91
2023/04/12 03:54:01;;;;;;;10.20;9.20;;;;;;;4.69;99.83;97272.02;109520;1290;22956;-89
2023/04/12 03:56:33;;;;;;;11.80;10.60;;;;;;;4.73;99.64;97273.77;109266;1289;22883;-92
2023/04/12 03:59:06;;;;;;;11.00;9.90;;;;;;;4.71;99.48;97274.36;109473;1290;22216;-89
2023/04/12 04:01:35;;;;;;;10.80;9.70;;;;;;;4.68;99.58;97273.85;109515;1290;22314;-90
2023/04/12 04:04:04;;;;;;;11.10;10.00;;;;;;;4.72;99.57;97273.34;109570;1285;22303;-89
2023/04/12 04:06:33;;;;;;;11.70;10.50;;;;;;;4.73;99.39;97270.19;109517;1292;22764;-91
2023/04/12 04:09:01;;;;;;;11.70;10.60;;;;;;;4.75;99.29;97273.39;109361;1292;22157;-91
2023/04/12 04:11:31;;;;;;;12.00;10.90;;;;;;;4.73;99.22;97267.73;109407;1292;22949;-91
2023/04/12 04:14:05;;;;;;;11.70;10.50;;;;;;;4.72;98.95;97266.56;109324;1292;22137;-90
2023/04/12 04:16:33;;;;;;;12.10;10.90;;;;;;;4.71;98.75;97270.58;109597;1292;22439;-92
2023/04/12 04:19:02;;;;;;;13.90;12.50;;;;;;;4.69;98.93;97267.87;109403;1292;22219;-93
2023/04/12 04:21:31;;;;;;;15.30;13.70;;;;;;;4.71;98.88;97271.17;109605;1292;22267;-91
2023/04/12 04:24:02;;;;;;;15.20;13.80;;;;;;;4.72;98.75;97268.33;109284;1292;22814;-90
2023/04/12 04:26:37;;;;;;;15.80;13.30;;;;;;;4.72;98.77;97273.13;109434;1292;22210;-91
2023/04/12 04:29:20;;;;;;;14.50;13.10;;;;;;;4.74;98.78;97274.52;109214;1292;22192;-89
2023/04/12 04:31:49;;;;;;;14.60;13.10;;;;;;;4.75;98.62;97271.08;109606;1292;22183;-88
2023/04/12 04:34:18;;;;;;;18.50;16.70;;;;;;;4.78;98.50;97277.42;109479;1292;22221;-86
2023/04/12 04:36:47;;;;;;;17.30;15.80;;;;;;;4.73;98.25;97280.23;109659;1292;22214;-90
2023/04/12 04:39:26;;;;;;;18.40;16.60;;;;;;;4.72;98.15;97281.81;109617;1292;22215;-89
2023/04/12 04:41:56;;;;;;;17.40;15.50;;;;;;;4.72;98.18;97282.20;109632;1291;22927;-88
2023/04/12 04:44:42;;;;;;;16.40;15.00;;;;;;;4.72;98.29;97279.59;109746;1266;22928;-89
2023/04/12 04:47:10;;;;;;;18.90;17.00;;;;;;;4.74;98.04;97278.83;109720;1265;22205;-92
2023/04/12 04:49:38;;;;;;;18.10;16.40;;;;;;;4.70;97.82;97282.86;109747;1290;22190;-91
2023/04/12 04:52:24;;;;;;;19.20;17.50;;;;;;;4.68;97.76;97283.40;109656;1290;22208;-91
2023/04/12 04:55:02;;;;;;;17.40;15.80;;;;;;;4.69;97.97;97289.42;109698;1261;22231;31
2023/04/12 04:57:36;;;;;;;16.50;14.90;;;;;;;4.71;97.96;97287.86;109593;1266;22458;-89
2023/04/12 05:00:10;;;;;;;16.30;14.80;;;;;;;4.73;98.04;97289.51;109601;1267;23436;31
2023/04/12 05:02:45;;;;;;;18.70;17.00;;;;;;;4.75;97.98;97287.64;109788;1264;22598;31
2023/04/12 05:05:16;;;;;;;19.10;17.20;;;;;;;4.74;97.47;97287.46;109322;1265;22607;-84
2023/04/12 05:07:46;;;;;;;21.40;19.20;;;;;;;4.70;97.67;97284.67;109846;1290;22202;-89
2023/04/12 05:10:19;;;;;;;20.70;18.30;;;;;;;4.79;97.77;97292.41;109760;1266;22415;31
2023/04/12 05:12:53;;;;;;;23.20;20.90;;;;;;;4.81;97.63;97292.51;108981;1267;23035;-94
2023/04/12 05:15:23;;;;;;;18.70;17.00;;;;;;;4.82;97.70;97295.75;109663;1266;22295;-90
2023/04/12 05:17:52;;;;;;;18.20;16.40;;;;;;;4.79;97.31;97292.79;109627;1284;22227;-92
2023/04/12 05:20:20;;;;;;;15.70;14.20;;;;;;;4.75;97.56;97296.86;109685;1291;22294;-92
2023/04/12 05:23:09;;;;;;;15.20;13.60;;;;;;;4.75;97.59;97299.33;109573;1266;22398;31
2023/04/12 05:25:45;;;;;;;15.40;14.00;;;;;;;4.71;97.16;97304.47;109658;1267;22286;31
2023/04/12 05:28:19;;;;;;;15.10;13.70;;;;;;;4.66;96.74;97308.87;109767;1260;22310;31
2023/04/12 05:34:25;;;;;;;15.20;13.70;;;;;;;4.68;97.13;97308.65;109655;1265;22283;31
2023/04/12 05:37:12;;;;;;;16.20;14.60;;;;;;;4.69;97.08;97311.16;109567;1274;22358;31
2023/04/12 05:39:46;;;;;;;14.90;13.60;;;;;;;4.65;96.55;97317.63;106943;1268;22547;-84
2023/04/12 05:42:22;;;;;;;16.30;13.30;;;;;;;4.65;97.00;97320.73;109591;1267;23457;31
2023/04/12 05:44:57;;;;;;;16.00;13.90;;;;;;;4.70;96.87;97321.45;109742;1263;23420;31
2023/04/12 05:47:36;;;;;;;28.50;24.20;;;;;;;4.71;96.77;97321.55;109643;1265;22386;31
2023/04/12 05:50:13;;;;;;;28.40;24.20;;;;;;;4.70;96.78;97327.21;109600;1265;22675;31
2023/04/12 05:52:50;;;;;;;18.70;16.20;;;;;;;4.71;96.39;97325.81;96015;1266;22356;-82
2023/04/12 05:55:26;;;;;;;18.80;16.70;;;;;;;4.70;96.53;97324.11;94071;1265;22460;-82
2023/04/12 06:01:13;;;;;;;18.60;16.80;;;;;;;4.75;96.72;97322.98;109795;1259;23604;31
2023/04/12 06:03:51;;;;;;;17.70;16.00;;;;;;;4.71;96.43;97326.13;109751;1263;23560;31
2023/04/12 06:07:08;;;;;;;17.70;16.00;;;;;;;4.68;96.43;97323.54;109685;1266;22825;31
2023/04/12 06:09:42;;;;;;;16.40;14.80;;;;;;;4.70;96.54;97314.23;106945;1260;22505;-82
2023/04/12 06:12:10;;;;;;;19.10;15.80;;;;;;;4.73;96.35;97315.82;109695;1264;22030;-86
2023/04/12 06:14:39;;;;;;;19.60;17.50;;;;;;;4.75;96.31;97311.77;109814;1291;22791;-91
2023/04/12 06:17:13;;;;;;;21.80;18.60;;;;;;;4.73;96.24;97313.69;109689;1266;22526;31
2023/04/12 06:19:51;;;;;;;19.10;16.60;;;;;;;4.71;96.07;97312.41;109645;1267;22519;31
2023/04/12 06:22:39;;;;;;;18.20;16.40;;;;;;;4.75;95.84;97311.86;109363;1264;22214;31
2023/04/12 06:25:32;;;;;;;20.10;17.90;;;;;;;4.75;95.93;97314.16;101435;1266;22325;31
2023/04/12 06:28:07;;;;;;;17.30;15.40;;;;;;;4.62;96.08;97291.75;109156;1261;22451;31
2023/04/12 06:30:49;;;;;;;18.80;16.90;;;;;;;4.72;96.07;97302.39;109579;1267;22386;31
2023/04/12 06:33:17;;;;;;;19.70;17.90;;;;;;;4.78;95.97;97312.22;109309;1266;22191;-88
2023/04/12 06:35:45;;;;;;;21.00;18.90;;;;;;;4.79;95.49;97303.90;109737;1263;22256;-84
2023/04/12 06:38:13;;;;;;;19.80;17.50;;;;;;;4.78;95.54;97305.45;109727;1264;22521;-88
2023/04/12 06:44:25;;;;;;;19.90;17.40;;;;;;;4.83;95.30;97303.81;109826;1267;23470;31
2023/04/12 06:46:53;;;;;;;19.80;18.10;;;;;;;4.81;95.58;97299.88;108388;1264;23873;-89
2023/04/12 06:49:41;;;;;;;20.80;18.80;;;;;;;4.80;95.83;97301.42;109663;1260;22777;31
2023/04/12 06:52:09;;;;;;;18.80;16.90;;;;;;;4.85;95.54;97307.00;109679;1263;22516;-89
2023/04/12 06:54:38;;;;;;;18.70;16.90;;;;;;;4.87;95.51;97305.13;109751;1263;22205;-87
2023/04/12 06:57:13;;;;;;;17.30;15.50;;;;;;;4.92;95.62;97305.05;109796;1260;22382;31
2023/04/12 06:59:40;;;;;;;20.00;18.00;;;;;;;4.86;95.39;97288.42;107645;1264;22484;-83
2023/04/12 07:05:30;;;;;;;35.30;27.40;;;;;;;4.96;95.11;97299.20;109822;1260;22242;31
2023/04/12 07:08:16;;;;;;;18.90;16.50;;;;;;;4.94;95.48;97284.31;109225;1261;22376;31
2023/04/12 07:10:54;;;;;;;21.30;19.00;;;;;;;5.07;95.31;97297.33;109662;1264;22337;31
2023/04/12 07:13:22;;;;;;;21.30;19.20;;;;;;;5.10;95.03;97301.56;109376;1267;22949;-93
2023/04/12 07:15:51;;;;;;;18.90;17.00;;;;;;;5.12;95.03;97299.96;109851;1286;22228;-90
2023/04/12 07:18:26;;;;;;;19.90;17.90;;;;;;;5.18;94.95;97298.24;109642;1290;22267;-91
2023/04/12 07:20:55;;;;;;;23.00;20.70;;;;;;;5.23;94.88;97304.05;109675;1290;22193;-89
2023/04/12 07:23:24;;;;;;;26.90;24.10;;;;;;;5.29;94.84;97304.95;109647;1290;22238;-89
2023/04/12 07:25:52;;;;;;;24.30;22.10;;;;;;;5.30;94.48;97306.71;109656;1290;22321;-90
2023/04/12 07:28:20;;;;;;;24.50;21.60;;;;;;;5.31;94.59;97304.20;109614;1290;22294;-88
2023/04/12 07:30:48;;;;;;;25.20;22.50;;;;;;;5.39;94.99;97306.85;109631;1290;22649;-90
2023/04/12 07:33:16;;;;;;;27.60;25.00;;;;;;;5.52;95.15;97306.21;109636;1290;22296;-88
2023/04/12 07:35:46;;;;;;;24.40;22.00;;;;;;;5.60;94.92;97301.17;109614;1290;22207;-88
2023/04/12 07:38:14;;;;;;;23.70;21.50;;;;;;;5.65;94.63;97298.52;109708;1290;22027;-92
2023/04/12 07:40:43;;;;;;;27.10;24.70;;;;;;;5.69;94.33;97296.71;109699;1266;22168;-90
2023/04/12 07:43:15;;;;;;;23.40;21.10;;;;;;;5.73;94.34;97299.95;109671;1279;22255;-91
2023/04/12 07:45:43;;;;;;;24.30;21.90;;;;;;;5.80;94.17;97299.66;109696;1291;22214;-89
2023/04/12 07:48:11;;;;;;;22.20;20.00;;;;;;;5.90;94.59;97304.23;109719;1291;22404;-91
2023/04/12 07:50:40;;;;;;;20.50;18.60;;;;;;;6.04;94.16;97304.09;109609;1291;22232;-89
2023/04/12 07:53:22;;;;;;;23.10;20.90;;;;;;;6.13;93.87;97301.07;109477;1291;23175;-86
2023/04/12 07:55:50;;;;;;;22.60;20.50;;;;;;;6.17;92.83;97294.71;109623;1291;22201;-89
2023/04/12 07:58:20;;;;;;;24.80;22.60;;;;;;;6.21;93.05;97293.05;109387;1291;22249;-88
2023/04/12 08:00:49;;;;;;;21.70;19.50;;;;;;;6.30;93.11;97296.38;109716;1291;22202;-91
2023/04/12 08:03:18;;;;;;;20.70;18.70;;;;;;;6.41;93.10;97298.07;109753;1291;23052;-86
2023/04/12 08:05:51;;;;;;;20.10;18.20;;;;;;;6.53;92.81;97292.78;109587;1291;22199;-92
2023/04/12 08:08:21;;;;;;;20.60;18.70;;;;;;;6.58;92.45;97290.48;109615;1292;22317;-90
2023/04/12 08:10:51;;;;;;;23.70;21.40;;;;;;;6.63;92.68;97291.37;109736;1292;22120;-91
2023/04/12 08:13:19;;;;;;;20.40;18.30;;;;;;;6.68;91.31;97290.98;109593;1292;22187;-89
2023/04/12 08:15:47;;;;;;;19.60;17.80;;;;;;;6.73;92.23;97293.60;109422;1291;22207;-87
2023/04/12 08:18:15;;;;;;;21.30;18.70;;;;;;;6.89;91.19;97295.27;109569;1291;22253;-93
2023/04/12 08:20:44;;;;;;;18.60;16.70;;;;;;;7.03;90.25;97294.95;109566;1283;22282;-87
2023/04/12 08:23:12;;;;;;;19.50;17.60;;;;;;;7.18;90.53;97285.77;109505;1291;22221;-89
2023/04/12 08:25:40;;;;;;;21.50;19.50;;;;;;;7.38;89.67;97277.50;109512;1292;22179;-89
2023/04/12 08:28:08;;;;;;;19.10;17.40;;;;;;;7.49;88.49;97277.78;109505;1292;22347;-90
2023/04/12 08:30:36;;;;;;;19.80;17.90;;;;;;;7.53;88.91;97276.17;109538;1292;22191;-89
2023/04/12 08:33:04;;;;;;;19.60;17.70;;;;;;;7.59;89.33;97273.91;109583;1291;22331;-87
2023/04/12 08:35:35;;;;;;;18.70;16.80;;;;;;;7.65;89.23;97271.77;109515;1291;22218;-87
2023/04/12 08:38:06;;;;;;;19.20;17.20;;;;;;;7.79;87.67;97269.23;109479;1292;22425;-87
2023/04/12 08:40:34;;;;;;;16.10;14.50;;;;;;;7.89;86.16;97270.92;109525;1292;22142;-88
2023/04/12 08:43:07;;;;;;;16.80;15.30;;;;;;;7.85;85.41;97265.20;109596;1292;22206;-89
2023/04/12 08:45:39;;;;;;;15.90;14.30;;;;;;;7.89;86.05;97265.93;109624;1292;22207;-88
2023/04/12 08:48:08;;;;;;;16.00;14.40;;;;;;;7.89;85.60;97260.85;109560;1292;23263;-91
2023/04/12 08:50:36;;;;;;;16.40;14.70;;;;;;;7.92;84.14;97266.39;109565;1291;22328;-91
2023/04/12 08:53:04;;;;;;;18.30;16.30;;;;;;;7.90;83.97;97262.20;109585;1292;22899;-89
2023/04/12 08:55:32;;;;;;;17.90;16.20;;;;;;;7.94;84.01;97255.44;109583;1264;22216;-90
2023/04/12 08:58:06;;;;;;;17.70;15.90;;;;;;;7.99;83.18;97254.59;109738;1290;22185;-91
2023/04/12 09:00:36;;;;;;;17.10;13.70;;;;;;;7.95;82.91;97256.97;109715;1290;22212;-88
2023/04/12 09:03:04;;;;;;;13.50;11.90;;;;;;;7.89;81.28;97257.04;109716;1290;22202;-90
2023/04/12 09:05:37;;;;;;;12.90;11.60;;;;;;;7.99;83.67;97253.09;109731;1263;22407;-91
2023/04/12 09:08:05;;;;;;;14.40;12.90;;;;;;;8.21;81.89;97246.16;108315;1263;22242;-90
2023/04/12 09:10:41;;;;;;;15.20;12.30;;;;;;;8.22;79.98;97245.13;109755;1264;22346;31
2023/04/12 09:13:09;;;;;;;12.30;11.10;;;;;;;8.10;78.74;97241.55;109588;1290;22270;-91
2023/04/12 09:15:50;;;;;;;13.90;11.40;;;;;;;8.15;79.00;97240.70;109602;1290;22392;-89
2023/04/12 09:18:18;;;;;;;13.10;11.80;;;;;;;8.27;79.69;97238.87;109435;1290;22240;-88
2023/04/12 09:20:46;;;;;;;12.00;10.70;;;;;;;8.32;79.26;97241.11;109612;1290;22230;-89
2023/04/12 09:23:19;;;;;;;11.10;10.00;;;;;;;8.39;80.83;97233.80;109688;1290;22248;-90
2023/04/12 09:25:50;;;;;;;16.20;12.10;;;;;;;8.61;81.05;97230.81;109583;1290;22245;-89
2023/04/12 09:28:26;;;;;;;13.80;12.40;;;;;;;8.88;80.55;97228.92;109596;1290;22299;-88
2023/04/12 09:30:56;;;;;;;12.90;11.70;;;;;;;9.04;77.88;97230.60;109590;1290;22312;-92
2023/04/12 09:33:38;;;;;;;13.10;11.40;;;;;;;9.14;80.04;97228.27;109610;1290;22273;-91
2023/04/12 09:36:12;;;;;;;13.70;12.30;;;;;;;9.21;78.68;97225.80;109648;1290;22342;-90
2023/04/12 09:41:41;;;;;;;13.40;11.20;;;;;;;9.02;78.17;97224.20;109664;1291;22166;-90
2023/04/12 09:44:27;;;;;;;15.50;12.90;;;;;;;9.00;77.74;97219.53;109575;1291;22296;-88
2023/04/12 09:46:55;;;;;;;12.80;11.50;;;;;;;9.00;77.79;97218.18;109597;1291;22247;-89
2023/04/12 09:49:39;;;;;;;12.20;10.30;;;;;;;9.02;77.32;97214.42;109580;1291;22275;-89
2023/04/12 09:52:09;;;;;;;11.90;10.50;;;;;;;9.11;77.24;97219.05;109599;1291;22238;-91
2023/04/12 09:54:41;;;;;;;11.00;9.50;;;;;;;9.16;76.48;97214.47;109612;1291;22160;-87
2023/04/12 09:57:11;;;;;;;11.20;9.00;;;;;;;9.20;77.91;97204.98;109559;1291;23256;-88
2023/04/12 09:59:40;;;;;;;10.50;9.00;;;;;;;9.30;76.28;97205.95;109547;1291;22211;-87
2023/04/12 10:02:17;;;;;;;10.20;8.80;;;;;;;9.28;72.26;97208.73;109562;1291;22203;-89
2023/04/12 10:04:47;;;;;;;11.90;8.90;;;;;;;9.37;76.02;97201.80;109509;1291;22212;-90
2023/04/12 10:07:16;;;;;;;10.60;8.90;;;;;;;9.48;74.63;97199.52;109475;1291;22207;-87
2023/04/12 10:09:45;;;;;;;10.70;8.40;;;;;;;9.47;75.00;97194.06;109459;1292;22213;-89
2023/04/12 10:12:14;;;;;;;10.00;7.60;;;;;;;9.54;76.35;97189.36;109277;1292;22223;-87
2023/04/12 10:14:42;;;;;;;8.80;7.90;;;;;;;9.67;75.31;97188.06;109435;1292;22171;-88
2023/04/12 10:17:12;;;;;;;9.60;7.90;;;;;;;9.81;74.65;97190.33;109466;1292;22194;-87
2023/04/12 10:19:42;;;;;;;9.30;7.70;;;;;;;9.79;70.06;97184.68;109476;1291;22212;-88
2023/04/12 10:22:10;;;;;;;11.10;6.60;;;;;;;9.64;68.56;97186.11;109441;1292;22203;-87
2023/04/12 10:24:38;;;;;;;9.30;7.00;;;;;;;9.61;72.16;97182.98;109463;1292;22247;-87
2023/04/12 10:27:07;;;;;;;8.80;6.70;;;;;;;9.76;73.50;97180.63;109472;1292;22222;-88
2023/04/12 10:29:37;;;;;;;9.40;7.30;;;;;;;9.97;73.61;97183.42;109489;1292;22190;-87
2023/04/12 10:32:21;;;;;;;9.10;7.80;;;;;;;10.11;71.26;97181.41;109484;1292;23069;-89
2023/04/12 10:35:04;;;;;;;9.50;7.70;;;;;;;10.09;70.56;97183.45;109460;1292;22993;-87
2023/04/12 10:38:00;;;;;;;9.60;7.80;;;;;;;9.99;71.82;97183.44;109462;1292;22257;-84
2023/04/12 10:40:31;;;;;;;11.40;7.20;;;;;;;9.97;72.20;97180.04;109435;1292;22143;-88
2023/04/12 10:43:22;;;;;;;8.10;7.20;;;;;;;9.98;71.76;97181.08;109447;1292;22225;-89
2023/04/12 10:45:53;;;;;;;8.20;7.40;;;;;;;9.89;68.46;97179.19;109485;1292;22212;-87
2023/04/12 10:48:37;;;;;;;9.80;7.40;;;;;;;9.82;69.92;97176.16;109519;1291;22643;-91
2023/04/12 10:51:27;;;;;;;7.80;7.00;;;;;;;9.86;69.90;97173.56;109473;1292;22214;-85
2023/04/12 10:54:07;;;;;;;9.70;6.50;;;;;;;10.15;70.46;97165.42;109418;1292;22129;-83
2023/04/12 10:56:44;;;;;;;10.90;7.00;;;;;;;10.37;69.94;97168.91;109554;1292;22956;-85
2023/04/12 10:59:23;;;;;;;8.00;7.20;;;;;;;10.58;70.49;97171.25;109543;1292;22123;-89
2023/04/12 11:02:08;;;;;;;8.70;7.00;;;;;;;10.53;66.83;97176.19;109680;1292;23002;-93
2023/04/12 11:05:09;;;;;;;7.90;6.60;;;;;;;10.27;67.84;97169.20;109703;1292;22136;-87
2023/04/12 11:07:59;;;;;;;7.60;6.80;;;;;;;10.17;67.59;97169.20;109786;1264;22225;-92
2023/04/12 11:10:40;;;;;;;7.50;6.30;;;;;;;10.06;67.22;97168.50;109854;1291;22151;-90
2023/04/12 11:13:14;;;;;;;;;;;;;;;10.11;69.09;97164.52;109744;1291;22358;-92
2023/04/12 11:15:43;;;;;;;10.60;7.40;;;;;;;10.21;69.43;97161.48;109756;1291;21927;-90
2023/04/12 11:18:12;;;;;;;7.90;7.10;;;;;;;10.29;69.83;97161.95;109589;1291;22289;-91
2023/04/12 11:20:41;;;;;;;7.20;6.30;;;;;;;10.50;70.52;97162.42;109645;1291;22212;-90
2023/04/12 11:23:10;;;;;;;7.90;6.40;;;;;;;10.65;68.38;97157.81;109595;1291;22199;-92
2023/04/12 11:25:40;;;;;;;7.40;6.40;;;;;;;10.78;69.50;97153.52;109674;1291;22871;-93
2023/04/12 11:28:17;;;;;;;7.70;5.70;;;;;;;11.01;68.91;97154.52;109350;1291;23446;-92
2023/04/12 11:30:56;;;;;;;9.20;6.20;;;;;;;11.25;67.67;97148.13;109664;1291;22213;-92
2023/04/12 11:33:32;;;;;;;8.90;6.20;;;;;;;11.42;68.20;97142.86;109657;1291;22233;-91
2023/04/12 11:36:13;;;;;;;8.10;5.80;;;;;;;11.60;66.33;97140.28;109540;1291;22255;-88
2023/04/12 11:38:44;;;;;;;8.30;5.90;;;;;;;11.63;64.61;97130.33;109773;1291;22197;-93
2023/04/12 11:41:19;;;;;;;6.60;5.40;;;;;;;11.54;64.23;97129.70;109743;1261;22364;31
2023/04/12 11:43:48;;;;;;;;;;;;;;;11.62;64.79;97120.98;109730;1290;22402;-90
2023/04/12 11:46:19;;;;;;;8.10;6.80;;;;;;;11.71;64.98;97120.97;109729;1290;22210;-91
2023/04/12 11:48:49;;;;;;;6.40;5.10;;;;;;;11.81;65.67;97121.80;109774;1290;22892;-90
2023/04/12 11:51:21;;;;;;;6.30;4.80;;;;;;;11.95;66.19;97115.45;109644;1290;22928;-88
2023/04/12 11:53:56;;;;;;;9.20;5.60;;;;;;;12.10;65.62;97108.98;109637;1290;22212;-89
2023/04/12 11:56:28;;;;;;;7.30;5.40;;;;;;;12.14;64.24;97105.68;109634;1290;22410;-89
2023/04/12 11:58:57;;;;;;;7.20;5.20;;;;;;;12.17;65.01;97109.91;109652;1290;22134;-86
2023/04/12 12:01:30;;;;;;;9.90;5.70;;;;;;;12.22;63.16;97109.66;109608;1290;22182;-90
2023/04/12 12:04:05;;;;;;;12.20;5.60;;;;;;;12.27;63.60;97106.98;109675;1290;22189;-91
2023/04/12 12:06:34;;;;;;;10.20;4.70;;;;;;;12.37;64.03;97104.40;109713;1292;22218;-90
2023/04/12 12:09:03;;;;;;;10.30;5.80;;;;;;;12.43;63.03;97097.83;109790;1292;22711;-87
2023/04/12 12:11:31;;;;;;;7.00;5.50;;;;;;;12.43;63.29;97097.45;109598;1292;22130;-92
2023/04/12 12:14:03;;;;;;;6.50;5.20;;;;;;;12.43;63.33;97088.61;109338;1292;22210;-88
2023/04/12 12:16:31;;;;;;;6.00;4.90;;;;;;;12.41;62.30;97093.04;109319;1292;22323;-88
2023/04/12 12:19:04;;;;;;;5.70;5.00;;;;;;;12.42;63.14;97090.46;109560;1291;23056;-90
2023/04/12 12:21:33;;;;;;;7.00;5.00;;;;;;;12.50;63.06;97085.48;109652;1291;22180;-89
2023/04/12 12:24:10;;;;;;;6.80;5.50;;;;;;;12.47;63.67;97082.60;109567;1292;22027;-90
2023/04/12 12:26:43;;;;;;;6.70;5.10;;;;;;;12.48;63.56;97079.95;109617;1291;22247;-92
2023/04/12 12:29:18;;;;;;;7.70;5.30;;;;;;;12.49;63.73;97074.65;109638;1292;22173;-93
2023/04/12 12:31:47;;;;;;;7.10;5.00;;;;;;;12.45;62.77;97073.88;109635;1291;22951;-90
2023/04/12 12:34:18;;;;;;;7.80;4.80;;;;;;;12.33;62.25;97072.30;109696;1280;22122;-89